createdAt,value
2022-12-18T00:01:24.799Z,103017.41
2022-12-18T00:03:52.602Z,103013.34
2022-12-18T00:06:20.680Z,103013.34
2022-12-18T00:08:48.758Z,103014.13
2022-12-18T00:11:22.885Z,103012.41
2022-12-18T00:13:50.913Z,102998.97
2022-12-18T00:16:23.912Z,102999.03
2022-12-18T00:18:55.244Z,102999.88
2022-12-18T00:21:22.299Z,102988.13
2022-12-18T00:23:49.960Z,102998.19
2022-12-18T00:26:22.823Z,102994.97
2022-12-18T00:28:50.277Z,102997.59
2022-12-18T00:31:19.713Z,102989.28
2022-12-18T00:33:48.169Z,102996.00
2022-12-18T00:36:18.575Z,102987.69
2022-12-18T00:38:45.425Z,102996.09
2022-12-18T00:41:14.418Z,102992.75
2022-12-18T00:43:41.547Z,102997.69
2022-12-18T00:46:08.928Z,102992.69
2022-12-18T00:48:36.975Z,102993.53
2022-12-18T00:51:08.071Z,103003.56
2022-12-18T00:53:35.410Z,103001.88
2022-12-18T00:56:05.396Z,103000.28
2022-12-18T00:58:31.929Z,103002.88
2022-12-18T01:00:58.437Z,103001.25
2022-12-18T01:03:25.220Z,102991.28
2022-12-18T01:05:55.689Z,102985.41
2022-12-18T01:08:23.000Z,102992.16
2022-12-18T01:10:49.867Z,102983.78
2022-12-18T01:13:17.154Z,102978.75
2022-12-18T01:15:52.932Z,102977.88
2022-12-18T01:18:21.054Z,102983.69
2022-12-18T01:20:47.562Z,102979.44
2022-12-18T01:23:14.384Z,102983.59
2022-12-18T01:25:41.477Z,102988.69
2022-12-18T01:28:09.905Z,102996.25
2022-12-18T01:30:36.395Z,103007.94
2022-12-18T01:33:06.048Z,103006.25
2022-12-18T01:35:32.937Z,103003.69
2022-12-18T01:37:59.754Z,103006.31
2022-12-18T01:40:27.147Z,103007.31
2022-12-18T01:42:55.281Z,103010.78
2022-12-18T01:45:22.057Z,103000.88
2022-12-18T01:47:57.168Z,103001.88
2022-12-18T01:50:35.570Z,103016.13
2022-12-18T01:53:08.305Z,103007.81
2022-12-18T01:55:43.174Z,103009.59
2022-12-18T01:58:10.053Z,103013.78
2022-12-18T02:00:37.054Z,103012.22
2022-12-18T02:03:04.525Z,103013.94
2022-12-18T02:05:37.605Z,103019.03
2022-12-18T02:08:20.986Z,103025.84
2022-12-18T02:11:10.559Z,103016.78
2022-12-18T02:14:08.171Z,103018.53
2022-12-18T02:16:48.357Z,103011.88
2022-12-18T02:19:51.496Z,103013.63
2022-12-18T02:23:12.628Z,103017.03
2022-12-18T02:26:10.124Z,103024.63
2022-12-18T02:28:43.655Z,103028.06
2022-12-18T02:31:15.499Z,103024.81
2022-12-18T02:33:47.256Z,103031.50
2022-12-18T02:36:15.839Z,103022.38
2022-12-18T02:38:43.989Z,103014.88
2022-12-18T02:41:11.625Z,103019.03
2022-12-18T02:43:38.400Z,103009.09
2022-12-18T02:46:27.431Z,103013.28
2022-12-18T02:49:16.960Z,103009.09
2022-12-18T02:51:58.197Z,102996.59
2022-12-18T02:54:32.091Z,102992.53
2022-12-18T02:57:06.415Z,102992.59
2022-12-18T02:59:50.661Z,103001.84
2022-12-18T03:02:29.246Z,102995.22
2022-12-18T03:05:02.124Z,102991.06
2022-12-18T03:07:38.175Z,102981.03
2022-12-18T03:10:12.022Z,102983.56
2022-12-18T03:12:48.903Z,102984.41
2022-12-18T03:15:24.457Z,102983.63
2022-12-18T03:17:59.287Z,102981.19
2022-12-18T03:20:31.230Z,102980.38
2022-12-18T03:23:05.394Z,102982.09
2022-12-18T03:25:34.403Z,102973.75
2022-12-18T03:28:03.527Z,102983.78
2022-12-18T03:30:33.872Z,102976.28
2022-12-18T03:33:16.077Z,102964.56
2022-12-18T03:35:46.197Z,102957.97
2022-12-18T03:38:15.033Z,102963.88
2022-12-18T03:41:28.547Z,102956.44
2022-12-18T03:44:16.653Z,102950.56
2022-12-18T03:46:49.497Z,102947.31
2022-12-18T03:49:29.966Z,102939.88
2022-12-18T03:52:10.453Z,102948.22
2022-12-18T03:54:38.754Z,102947.47
2022-12-18T03:57:15.422Z,102943.28
2022-12-18T03:59:44.404Z,102945.00
2022-12-18T04:02:15.666Z,102945.03
2022-12-18T04:04:44.479Z,102941.72
2022-12-18T04:07:11.693Z,102943.38
2022-12-18T04:09:40.870Z,102936.69
2022-12-18T04:12:09.728Z,102938.47
2022-12-18T04:14:36.865Z,102946.91
2022-12-18T04:17:06.575Z,102938.56
2022-12-18T04:19:33.345Z,102921.97
2022-12-18T04:21:59.864Z,102924.53
2022-12-18T04:24:31.964Z,102917.06
2022-12-18T04:27:00.913Z,102918.69
2022-12-18T04:29:30.653Z,102920.38
2022-12-18T04:31:57.895Z,102909.47
2022-12-18T04:34:24.712Z,102919.44
2022-12-18T04:36:52.559Z,102918.66
2022-12-18T04:39:19.322Z,102917.81
2022-12-18T04:41:46.177Z,102910.28
2022-12-18T04:44:14.754Z,102911.16
2022-12-18T04:46:41.872Z,102921.97
2022-12-18T04:49:08.932Z,102931.91
2022-12-18T04:51:35.415Z,102932.75
2022-12-18T04:54:02.120Z,102940.25
2022-12-18T04:56:29.038Z,102937.75
2022-12-18T04:58:58.998Z,102940.28
2022-12-18T05:01:30.963Z,102945.28
2022-12-18T05:04:02.086Z,102948.59
2022-12-18T05:06:31.470Z,102961.94
2022-12-18T05:08:58.249Z,102967.75
2022-12-18T05:11:25.954Z,102959.47
2022-12-18T05:13:56.620Z,102969.50
2022-12-18T05:16:25.452Z,102972.06
2022-12-18T05:18:53.191Z,102971.28
2022-12-18T05:21:23.385Z,102970.53
2022-12-18T05:23:49.930Z,102979.75
2022-12-18T05:26:20.851Z,102974.00
2022-12-18T05:28:47.731Z,102979.88
2022-12-18T05:31:17.160Z,102984.03
2022-12-18T05:33:46.312Z,103000.72
2022-12-18T05:36:14.415Z,102992.38
2022-12-18T05:38:41.752Z,102996.50
2022-12-18T05:41:09.567Z,102987.34
2022-12-18T05:43:41.119Z,102984.00
2022-12-18T05:46:12.794Z,102975.63
2022-12-18T05:48:39.341Z,102968.13
2022-12-18T05:51:13.652Z,102965.63
2022-12-18T05:53:43.408Z,102967.31
2022-12-18T05:56:14.067Z,102962.31
2022-12-18T05:58:41.478Z,102956.50
2022-12-18T06:01:15.037Z,102954.81
2022-12-18T06:03:42.952Z,102941.53
2022-12-18T06:06:28.442Z,102946.53
2022-12-18T06:08:55.453Z,102943.16
2022-12-18T06:11:27.348Z,102947.34
2022-12-18T06:13:58.952Z,102942.41
2022-12-18T06:16:26.952Z,102938.28
2022-12-18T06:18:54.202Z,102936.63
2022-12-18T06:21:22.537Z,102928.34
2022-12-18T06:23:49.521Z,102934.22
2022-12-18T06:26:16.872Z,102929.28
2022-12-18T06:28:43.613Z,102921.00
2022-12-18T06:31:11.387Z,102933.47
2022-12-18T06:33:41.152Z,102925.09
2022-12-18T06:36:10.069Z,102920.09
2022-12-18T06:38:39.009Z,102920.91
2022-12-18T06:41:15.500Z,102913.44
2022-12-18T06:43:43.131Z,102912.66
2022-12-18T06:46:10.885Z,102911.84
2022-12-18T06:48:37.873Z,102908.53
2022-12-18T06:51:07.372Z,102908.47
2022-12-18T06:53:34.241Z,102895.16
2022-12-18T06:56:07.854Z,102893.56
2022-12-18T06:58:36.898Z,102889.41
2022-12-18T07:01:05.437Z,102887.69
2022-12-18T07:03:33.978Z,102884.31
2022-12-18T07:06:00.696Z,102880.97
2022-12-18T07:08:29.645Z,102880.94
2022-12-18T07:10:56.694Z,102885.88
2022-12-18T07:13:23.520Z,102882.53
2022-12-18T07:15:50.401Z,102884.19
2022-12-18T07:18:17.149Z,102883.31
2022-12-18T07:20:43.951Z,102870.81
2022-12-18T07:23:11.181Z,102864.13
2022-12-18T07:25:38.042Z,102872.41
2022-12-18T07:28:05.724Z,102875.72
2022-12-18T07:30:32.407Z,102875.78
2022-12-18T07:32:59.451Z,102879.97
2022-12-18T07:35:27.127Z,102864.13
2022-12-18T07:37:54.355Z,102847.41
2022-12-18T07:40:21.092Z,102840.72
2022-12-18T07:42:48.541Z,102840.66
2022-12-18T07:45:19.197Z,102838.91
2022-12-18T07:47:47.698Z,102837.16
2022-12-18T07:50:14.684Z,102828.78
2022-12-18T07:52:41.647Z,102826.19
2022-12-18T07:55:09.664Z,102826.97
2022-12-18T07:57:50.448Z,102815.19
2022-12-18T08:00:18.515Z,102809.28
2022-12-18T08:02:47.387Z,102820.00
2022-12-18T08:05:15.496Z,102813.22
2022-12-18T08:07:44.543Z,102808.09
2022-12-18T08:10:16.290Z,102815.34
2022-12-18T08:12:43.013Z,102799.19
2022-12-18T08:15:13.120Z,102798.97
2022-12-18T08:17:40.671Z,102802.00
2022-12-18T08:20:09.987Z,102792.47
2022-12-18T08:22:40.017Z,102796.41
2022-12-18T08:25:08.743Z,102808.41
2022-12-18T08:27:35.445Z,102804.66
2022-12-18T08:30:04.750Z,102815.16
2022-12-18T08:32:34.143Z,102812.44
2022-12-18T08:35:02.220Z,102822.19
2022-12-18T08:37:29.357Z,102824.53
2022-12-18T08:39:56.180Z,102815.28
2022-12-18T08:42:41.578Z,102825.31
2022-12-18T08:45:08.985Z,102834.53
2022-12-18T08:47:35.694Z,102821.94
2022-12-18T08:50:02.589Z,102817.69
2022-12-18T08:52:29.282Z,102821.03
2022-12-18T08:54:55.891Z,102823.44
2022-12-18T08:57:23.099Z,102825.72
2022-12-18T08:59:50.442Z,102816.25
2022-12-18T09:02:18.682Z,102823.28
2022-12-18T09:04:56.975Z,102823.59
2022-12-18T09:07:24.375Z,102829.94
2022-12-18T09:09:55.135Z,102838.22
2022-12-18T09:12:26.441Z,102827.16
2022-12-18T09:14:53.061Z,102824.38
2022-12-18T09:17:20.045Z,102825.91
2022-12-18T09:19:46.857Z,102815.72
2022-12-18T09:22:14.045Z,102815.38
2022-12-18T09:24:40.849Z,102812.00
2022-12-18T09:27:08.155Z,102812.03
2022-12-18T09:29:37.019Z,102816.06
2022-12-18T09:32:04.577Z,102824.53
2022-12-18T09:34:31.032Z,102818.56
2022-12-18T09:36:57.903Z,102818.56
2022-12-18T09:39:24.590Z,102807.81
2022-12-18T09:41:59.560Z,102794.28
2022-12-18T09:44:48.342Z,102797.50
2022-12-18T09:47:39.014Z,102786.50
2022-12-18T09:50:22.267Z,102785.53
2022-12-18T09:52:54.675Z,102783.78
2022-12-18T09:55:38.134Z,102785.38
2022-12-18T09:58:17.861Z,102787.00
2022-12-18T10:00:46.633Z,102778.50
2022-12-18T10:03:18.982Z,102762.47
2022-12-18T10:06:04.299Z,102761.56
2022-12-18T10:09:01.519Z,102758.13
2022-12-18T10:11:52.930Z,102750.44
2022-12-18T10:14:37.688Z,102763.75
2022-12-18T10:17:13.466Z,102760.22
2022-12-18T10:19:50.540Z,102761.78
2022-12-18T10:23:02.803Z,102749.13
2022-12-18T10:26:03.505Z,102758.16
2022-12-18T10:28:32.324Z,102747.22
2022-12-18T10:30:59.512Z,102747.09
2022-12-18T10:33:34.449Z,102750.44
2022-12-18T10:36:01.595Z,102750.41
2022-12-18T10:38:30.937Z,102746.06
2022-12-18T10:40:58.661Z,102737.69
2022-12-18T10:43:30.089Z,102729.13
2022-12-18T10:46:13.275Z,102729.94
2022-12-18T10:48:40.329Z,102731.50
2022-12-18T10:51:12.831Z,102732.28
2022-12-18T10:53:43.088Z,102734.63
2022-12-18T10:56:09.952Z,102721.88
2022-12-18T10:58:39.701Z,102718.44
2022-12-18T11:01:11.717Z,102717.44
2022-12-18T11:03:44.953Z,102714.91
2022-12-18T11:06:13.431Z,102708.09
2022-12-18T11:08:42.395Z,102710.53
2022-12-18T11:11:31.189Z,102706.19
2022-12-18T11:14:17.337Z,102694.38
2022-12-18T11:17:03.110Z,102685.13
2022-12-18T11:19:45.145Z,102686.66
2022-12-18T11:22:41.763Z,102674.75
2022-12-18T11:25:33.452Z,102675.47
2022-12-18T11:28:07.067Z,102670.31
2022-12-18T11:30:38.406Z,102669.34
2022-12-18T11:33:16.704Z,102661.66
2022-12-18T11:35:54.192Z,102664.03
2022-12-18T11:38:25.240Z,102661.44
2022-12-18T11:41:13.041Z,102668.03
2022-12-18T11:43:53.943Z,102665.31
2022-12-18T11:46:29.538Z,102671.13
2022-12-18T11:49:28.019Z,102666.84
2022-12-18T11:52:04.817Z,102657.41
2022-12-18T11:54:31.658Z,102653.97
2022-12-18T11:57:15.375Z,102649.59
2022-12-18T12:00:05.876Z,102649.56
2022-12-18T12:02:42.385Z,102645.22
2022-12-18T12:05:34.268Z,102634.25
2022-12-18T12:08:22.915Z,102627.53
2022-12-18T12:10:55.816Z,102626.63
2022-12-18T12:13:37.713Z,102618.94
2022-12-18T12:16:26.211Z,102614.66
2022-12-18T12:18:54.182Z,102611.25
2022-12-18T12:21:35.523Z,102603.63
2022-12-18T12:24:05.128Z,102602.81
2022-12-18T12:26:44.130Z,102598.41
2022-12-18T12:29:26.234Z,102595.81
2022-12-18T12:32:04.625Z,102593.25
2022-12-18T12:34:47.132Z,102592.38
2022-12-18T12:37:35.143Z,102590.53
2022-12-18T12:40:15.417Z,102589.66
2022-12-18T12:43:15.520Z,102587.81
2022-12-18T12:45:57.051Z,102581.03
2022-12-18T12:49:00.837Z,102571.75
2022-12-18T12:51:33.385Z,102569.09
2022-12-18T12:54:02.660Z,102569.03
2022-12-18T12:56:47.165Z,102565.56
2022-12-18T12:59:31.957Z,102558.75
2022-12-18T13:02:21.069Z,102552.88
2022-12-18T13:05:20.104Z,102546.81
2022-12-18T13:07:58.496Z,102551.88
2022-12-18T13:10:37.309Z,102555.13
2022-12-18T13:13:17.293Z,102548.34
2022-12-18T13:16:09.495Z,102549.25
2022-12-18T13:18:36.778Z,102553.41
2022-12-18T13:21:18.365Z,102547.38
2022-12-18T13:23:46.152Z,102547.38
2022-12-18T13:26:23.226Z,102559.97
2022-12-18T13:28:59.469Z,102554.06
2022-12-18T13:31:41.976Z,102547.25
2022-12-18T13:34:28.048Z,102547.19
2022-12-18T13:36:58.393Z,102544.66
2022-12-18T13:39:35.331Z,102539.50
2022-12-18T13:42:05.515Z,102526.13
2022-12-18T13:44:40.934Z,102531.13
2022-12-18T13:47:40.617Z,102523.59
2022-12-18T13:50:35.468Z,102512.69
2022-12-18T13:53:06.268Z,102506.81
2022-12-18T13:55:34.680Z,102495.91
2022-12-18T13:58:09.260Z,102502.66
2022-12-18T14:00:39.328Z,102506.06
2022-12-18T14:03:22.379Z,102506.06
2022-12-18T14:05:56.817Z,102500.13
2022-12-18T14:08:33.233Z,102499.31
2022-12-18T14:10:59.928Z,102486.63
2022-12-18T14:13:33.213Z,102483.28
2022-12-18T14:16:03.841Z,102484.09
2022-12-18T14:18:38.936Z,102478.16
2022-12-18T14:21:07.991Z,102468.06
2022-12-18T14:23:36.475Z,102464.75
2022-12-18T14:26:23.335Z,102469.66
2022-12-18T14:28:51.715Z,102462.91
2022-12-18T14:31:25.088Z,102453.72
2022-12-18T14:33:54.196Z,102456.97
2022-12-18T14:36:29.257Z,102448.50
2022-12-18T14:39:00.420Z,102430.84
2022-12-18T14:41:30.105Z,102437.53
2022-12-18T14:44:07.842Z,102442.66
2022-12-18T14:46:40.266Z,102439.31
2022-12-18T14:49:24.606Z,102439.31
2022-12-18T14:51:57.003Z,102441.81
2022-12-18T14:54:29.031Z,102430.09
2022-12-18T14:57:29.879Z,102419.94
2022-12-18T15:00:06.696Z,102417.41
2022-12-18T15:02:37.222Z,102422.53
2022-12-18T15:05:24.667Z,102420.81
2022-12-18T15:07:56.983Z,102420.00
2022-12-18T15:10:26.292Z,102425.78
2022-12-18T15:13:03.667Z,102426.63
2022-12-18T15:15:40.604Z,102421.56
2022-12-18T15:18:18.051Z,102424.91
2022-12-18T15:20:53.928Z,102419.84
2022-12-18T15:23:22.983Z,102420.75
2022-12-18T15:25:56.943Z,102408.28
2022-12-18T15:28:39.043Z,102411.53
2022-12-18T15:31:10.035Z,102409.84
2022-12-18T15:33:43.674Z,102411.47
2022-12-18T15:36:15.997Z,102410.66
2022-12-18T15:38:50.606Z,102413.88
2022-12-18T15:41:24.709Z,102415.56
2022-12-18T15:43:53.516Z,102410.53
2022-12-18T15:46:22.323Z,102415.50
2022-12-18T15:49:01.696Z,102417.91
2022-12-18T15:51:33.839Z,102418.63
2022-12-18T15:54:04.895Z,102411.97
2022-12-18T15:56:50.396Z,102403.56
2022-12-18T15:59:21.420Z,102393.53
2022-12-18T16:01:54.057Z,102394.50
2022-12-18T16:04:22.937Z,102389.38
2022-12-18T16:09:37.602Z,102386.03
2022-12-18T16:12:18.397Z,102380.97
2022-12-18T16:14:46.583Z,102385.28
2022-12-18T16:17:16.158Z,102367.63
2022-12-18T16:19:44.969Z,102370.16
2022-12-18T16:22:29.040Z,102363.41
2022-12-18T16:24:58.215Z,102346.66
2022-12-18T16:27:27.934Z,102353.44
2022-12-18T16:29:54.605Z,102343.34
2022-12-18T16:32:23.317Z,102341.56
2022-12-18T16:34:50.578Z,102321.31
2022-12-18T16:37:17.265Z,102312.75
2022-12-18T16:39:44.535Z,102317.88
2022-12-18T16:42:15.573Z,102311.22
2022-12-18T16:44:42.333Z,102316.94
2022-12-18T16:47:09.290Z,102311.94
2022-12-18T16:49:42.529Z,102312.75
2022-12-18T16:52:11.684Z,102304.16
2022-12-18T16:54:39.632Z,102304.09
2022-12-18T16:57:06.191Z,102302.44
2022-12-18T16:59:36.343Z,102302.53
2022-12-18T17:02:02.929Z,102305.78
2022-12-18T17:04:29.594Z,102301.56
2022-12-18T17:06:56.233Z,102302.41
2022-12-18T17:09:25.821Z,102309.13
2022-12-18T17:11:53.380Z,102305.78
2022-12-18T17:14:23.993Z,102295.69
2022-12-18T17:17:07.316Z,102307.44
2022-12-18T17:19:38.635Z,102312.50
2022-12-18T17:22:05.489Z,102310.78
2022-12-18T17:24:35.159Z,102306.47
2022-12-18T17:27:05.424Z,102313.22
2022-12-18T17:29:32.352Z,102304.84
2022-12-18T17:32:00.457Z,102305.66
2022-12-18T17:34:27.761Z,102295.56
2022-12-18T17:36:54.871Z,102296.28
2022-12-18T17:39:21.707Z,102299.72
2022-12-18T17:41:49.649Z,102297.94
2022-12-18T17:44:19.433Z,102305.50
2022-12-18T17:46:48.803Z,102300.53
2022-12-18T17:49:18.039Z,102305.50
2022-12-18T17:51:46.912Z,102303.88
2022-12-18T17:54:13.829Z,102300.53
2022-12-18T17:56:40.535Z,102311.41
2022-12-18T17:59:08.493Z,102309.69
2022-12-18T18:01:39.681Z,102302.13
2022-12-18T18:04:09.221Z,102298.69
2022-12-18T18:06:38.963Z,102297.78
2022-12-18T18:09:07.277Z,102304.41
2022-12-18T18:12:02.720Z,102306.09
2022-12-18T18:14:32.818Z,102305.28
2022-12-18T18:17:05.256Z,102306.19
2022-12-18T18:19:32.865Z,102306.94
2022-12-18T18:21:59.432Z,102312.00
2022-12-18T18:24:26.509Z,102309.47
2022-12-18T18:26:54.670Z,102314.53
2022-12-18T18:29:24.266Z,102303.38
2022-12-18T18:31:53.443Z,102298.31
2022-12-18T18:34:29.539Z,102308.34
2022-12-18T18:37:01.393Z,102303.38
2022-12-18T18:39:28.759Z,102297.41
2022-12-18T18:41:55.748Z,102296.56
2022-12-18T18:44:23.423Z,102302.41
2022-12-18T18:46:56.717Z,102297.28
2022-12-18T18:49:27.815Z,102283.03
2022-12-18T18:51:56.203Z,102284.66
2022-12-18T18:54:25.958Z,102287.09
2022-12-18T18:59:41.676Z,102279.31
2022-12-18T19:02:13.709Z,102277.59
2022-12-18T19:04:45.772Z,102276.66
2022-12-18T19:07:12.930Z,102279.19
2022-12-18T19:09:41.768Z,102274.94
2022-12-18T19:12:27.997Z,102275.66
2022-12-18T19:14:55.118Z,102276.47
2022-12-18T19:17:28.052Z,102260.44
2022-12-18T19:19:56.347Z,102262.97
2022-12-18T19:22:24.113Z,102273.81
2022-12-18T19:24:50.672Z,102264.63
2022-12-18T19:27:17.766Z,102264.44
2022-12-18T19:29:44.273Z,102258.50
2022-12-18T19:32:11.325Z,102266.84
2022-12-18T19:34:38.998Z,102274.41
2022-12-18T19:37:08.155Z,102264.97
2022-12-18T19:39:39.236Z,102263.31
2022-12-18T19:42:06.087Z,102263.28
2022-12-18T19:44:32.761Z,102267.34
2022-12-18T19:47:01.876Z,102273.28
2022-12-18T19:49:32.711Z,102284.03
2022-12-18T19:51:59.585Z,102281.53
2022-12-18T19:54:27.192Z,102273.06
2022-12-18T19:56:55.260Z,102264.69
2022-12-18T19:59:21.888Z,102269.72
2022-12-18T20:01:48.784Z,102274.78
2022-12-18T20:04:15.866Z,102272.19
2022-12-18T20:06:50.592Z,102259.75
2022-12-18T20:09:18.330Z,102265.81
2022-12-18T20:11:46.397Z,102254.13
2022-12-18T20:14:14.843Z,102257.53
2022-12-18T20:16:49.507Z,102261.84
2022-12-18T20:19:17.820Z,102256.06
2022-12-18T20:21:44.839Z,102268.78
2022-12-18T20:24:14.124Z,102262.97
2022-12-18T20:26:41.108Z,102259.56
2022-12-18T20:29:07.847Z,102266.16
2022-12-18T20:31:34.837Z,102272.94
2022-12-18T20:34:05.010Z,102273.81
2022-12-18T20:36:35.198Z,102275.44
2022-12-18T20:39:05.231Z,102272.94
2022-12-18T20:41:38.809Z,102268.69
2022-12-18T20:44:20.543Z,102260.38
2022-12-18T20:46:50.311Z,102265.44
2022-12-18T20:49:17.535Z,102250.34
2022-12-18T20:51:44.136Z,102252.84
2022-12-18T20:54:11.991Z,102247.00
2022-12-18T20:56:39.517Z,102251.31
2022-12-18T20:59:09.127Z,102248.78
2022-12-18T21:01:39.170Z,102244.63
2022-12-18T21:04:09.719Z,102240.47
2022-12-18T21:06:37.283Z,102237.06
2022-12-18T21:09:04.556Z,102223.69
2022-12-18T21:11:51.721Z,102226.19
2022-12-18T21:14:21.929Z,102224.56
2022-12-18T21:16:51.897Z,102212.94
2022-12-18T21:19:21.390Z,102209.44
2022-12-18T21:21:47.985Z,102200.94
2022-12-18T21:24:15.344Z,102211.91
2022-12-18T21:26:46.103Z,102209.38
2022-12-18T21:29:20.006Z,102207.72
2022-12-18T21:31:47.773Z,102201.84
2022-12-18T21:34:17.672Z,102194.22
2022-12-18T21:36:44.843Z,102187.38
2022-12-18T21:39:13.393Z,102194.03
2022-12-18T21:41:58.947Z,102183.94
2022-12-18T21:44:25.546Z,102188.03
2022-12-18T21:46:56.941Z,102184.44
2022-12-18T21:49:29.628Z,102177.78
2022-12-18T21:51:58.992Z,102175.97
2022-12-18T21:54:27.338Z,102172.56
2022-12-18T21:57:14.439Z,102174.22
2022-12-18T21:59:43.498Z,102173.31
2022-12-18T22:02:22.005Z,102172.41
2022-12-18T22:04:50.413Z,102153.91
2022-12-18T22:07:18.034Z,102137.84
2022-12-18T22:09:47.182Z,102152.16
2022-12-18T22:12:34.391Z,102146.19
2022-12-18T22:15:02.898Z,102157.09
2022-12-18T22:17:29.653Z,102146.09
2022-12-18T22:19:57.693Z,102141.78
2022-12-18T22:22:26.231Z,102136.72
2022-12-18T22:24:53.657Z,102138.28
2022-12-18T22:27:28.629Z,102125.47
2022-12-18T22:30:04.821Z,102111.22
2022-12-18T22:32:35.368Z,102111.13
2022-12-18T22:35:09.454Z,102101.03
2022-12-18T22:37:41.865Z,102096.97
2022-12-18T22:40:23.915Z,102075.16
2022-12-18T22:42:52.649Z,102069.34
2022-12-18T22:45:23.203Z,102064.22
2022-12-18T22:47:52.092Z,102046.53
2022-12-18T22:50:19.007Z,102053.31
2022-12-18T22:52:45.547Z,102059.09
2022-12-18T22:55:14.849Z,102048.88
2022-12-18T22:57:43.779Z,102047.13
2022-12-18T23:00:16.114Z,102039.44
2022-12-18T23:02:45.243Z,102045.22
2022-12-18T23:05:12.321Z,102055.31
2022-12-18T23:07:39.508Z,102048.56
2022-12-18T23:10:06.549Z,102046.88
2022-12-18T23:12:37.529Z,102033.41
2022-12-18T23:15:06.633Z,102019.09
2022-12-18T23:17:34.008Z,101998.88
2022-12-18T23:20:01.619Z,101993.72
2022-12-18T23:22:30.969Z,102002.03
2022-12-18T23:24:59.789Z,101988.69
2022-12-18T23:27:27.376Z,102004.56
2022-12-18T23:29:54.410Z,102010.41
2022-12-18T23:32:22.819Z,102004.31
2022-12-18T23:34:51.607Z,102004.31
2022-12-18T23:37:49.993Z,102000.88
2022-12-18T23:40:10.821Z,102010.06
2022-12-18T23:42:37.383Z,101989.81
2022-12-18T23:45:16.623Z,101973.91
2022-12-18T23:47:46.306Z,101972.03
2022-12-18T23:50:18.490Z,101961.09
2022-12-18T23:52:45.783Z,101950.91
2022-12-18T23:55:12.785Z,101955.88
2022-12-18T23:57:40.069Z,101971.88
